createdAt,value
2023-02-22T00:02:29.195Z,6.65
2023-02-22T00:05:31.701Z,4.03
2023-02-22T00:08:36.892Z,3.57
2023-02-22T00:11:39.410Z,6.43
2023-02-22T00:14:42.296Z,7.32
2023-02-22T00:17:45.171Z,3.78
2023-02-22T00:20:47.996Z,5.97
2023-02-22T00:23:50.512Z,4.73
2023-02-22T00:26:57.667Z,5.33
2023-02-22T00:30:00.367Z,4.72
2023-02-22T00:33:03.590Z,4.28
2023-02-22T00:36:06.571Z,5.53
2023-02-22T00:39:09.627Z,6.33
2023-02-22T00:42:12.125Z,4.53
2023-02-22T00:45:17.477Z,4.80
2023-02-22T00:48:20.128Z,5.15
2023-02-22T00:51:26.391Z,4.78
2023-02-22T00:54:28.997Z,4.43
2023-02-22T00:57:31.853Z,6.00
2023-02-22T01:00:41.675Z,3.75
2023-02-22T01:03:44.973Z,4.65
2023-02-22T01:06:47.789Z,5.38
2023-02-22T01:09:50.327Z,3.63
2023-02-22T01:12:55.101Z,3.57
2023-02-22T01:15:57.665Z,3.70
2023-02-22T01:19:01.480Z,5.82
2023-02-22T01:22:05.511Z,4.20
2023-02-22T01:25:09.761Z,2.93
2023-02-22T01:28:13.720Z,4.97
2023-02-22T01:31:16.597Z,4.43
2023-02-22T01:34:19.486Z,4.57
2023-02-22T01:37:21.906Z,4.60
2023-02-22T01:40:34.514Z,5.30
2023-02-22T01:43:38.789Z,5.03
2023-02-22T01:46:41.290Z,3.65
2023-02-22T01:49:48.158Z,6.82
2023-02-22T01:52:51.466Z,5.45
2023-02-22T01:55:55.670Z,6.23
2023-02-22T01:59:03.168Z,4.77
2023-02-22T02:02:06.267Z,4.97
2023-02-22T02:05:09.174Z,7.40
2023-02-22T02:08:51.689Z,4.60
2023-02-22T02:11:54.889Z,5.00
2023-02-22T02:15:17.309Z,4.80
2023-02-22T02:18:20.042Z,4.05
2023-02-22T02:21:44.506Z,4.35
2023-02-22T02:25:05.423Z,4.15
2023-02-22T02:28:14.313Z,4.33
2023-02-22T02:31:24.562Z,5.07
2023-02-22T02:34:46.669Z,4.40
2023-02-22T02:38:26.412Z,5.10
2023-02-22T02:41:35.989Z,4.63
2023-02-22T02:44:49.874Z,5.70
2023-02-22T02:47:59.909Z,5.60
2023-02-22T02:51:05.791Z,5.40
2023-02-22T02:54:10.408Z,8.02
2023-02-22T02:57:13.401Z,5.50
2023-02-22T03:00:24.934Z,4.83
2023-02-22T03:03:27.372Z,6.03
2023-02-22T03:07:11.240Z,6.15
2023-02-22T03:10:44.296Z,5.22
2023-02-22T03:14:16.596Z,5.93
2023-02-22T03:17:47.656Z,5.93
2023-02-22T03:20:59.925Z,4.93
2023-02-22T03:24:08.545Z,5.80
2023-02-22T03:27:21.546Z,6.30
2023-02-22T03:30:37.539Z,5.13
2023-02-22T03:33:49.127Z,6.93
2023-02-22T03:37:02.603Z,6.03
2023-02-22T03:40:15.104Z,4.85
2023-02-22T03:43:27.754Z,6.10
2023-02-22T03:46:35.969Z,5.88
2023-02-22T03:49:51.366Z,7.07
2023-02-22T03:52:56.155Z,5.00
2023-02-22T03:56:05.957Z,7.88
2023-02-22T03:59:10.800Z,7.88
2023-02-22T04:02:13.368Z,7.80
2023-02-22T04:05:16.085Z,5.57
2023-02-22T04:08:18.741Z,5.30
2023-02-22T04:11:22.936Z,6.25
2023-02-22T04:14:25.584Z,6.68
2023-02-22T04:17:29.856Z,7.65
2023-02-22T04:20:35.008Z,7.47
2023-02-22T04:24:00.827Z,9.27
2023-02-22T04:27:03.755Z,6.20
2023-02-22T04:30:09.133Z,7.18
2023-02-22T04:33:14.453Z,5.68
2023-02-22T04:36:17.057Z,7.80
2023-02-22T04:39:21.224Z,5.17
2023-02-22T04:42:23.819Z,6.78
2023-02-22T04:45:26.742Z,8.20
2023-02-22T04:48:30.514Z,7.40
2023-02-22T04:51:33.217Z,7.13
2023-02-22T04:54:38.507Z,7.77
2023-02-22T04:57:41.105Z,6.25
2023-02-22T05:00:45.620Z,7.97
2023-02-22T05:03:48.112Z,5.22
2023-02-22T05:06:51.122Z,10.07
2023-02-22T05:09:54.719Z,10.67
2023-02-22T05:12:57.195Z,9.73
2023-02-22T05:16:00.037Z,8.20
2023-02-22T05:19:02.817Z,8.45
2023-02-22T05:22:05.797Z,10.87
2023-02-22T05:25:09.044Z,10.33
2023-02-22T05:28:14.648Z,9.40
2023-02-22T05:31:18.273Z,9.60
2023-02-22T05:34:20.956Z,9.80
2023-02-22T05:37:23.381Z,9.27
2023-02-22T05:40:27.458Z,14.77
2023-02-22T05:43:30.535Z,8.90
2023-02-22T05:46:33.055Z,10.38
2023-02-22T05:49:35.655Z,10.55
2023-02-22T05:52:38.774Z,9.57
2023-02-22T05:55:41.370Z,12.63
2023-02-22T05:58:43.865Z,12.15
2023-02-22T06:01:46.588Z,15.93
2023-02-22T06:04:49.153Z,18.95
2023-02-22T06:07:52.334Z,12.80
2023-02-22T06:10:55.090Z,12.90
2023-02-22T06:13:57.752Z,16.30
2023-02-22T06:17:01.268Z,14.93
2023-02-22T06:20:04.057Z,11.43
2023-02-22T06:23:07.007Z,14.63
2023-02-22T06:26:09.544Z,11.37
2023-02-22T06:29:12.166Z,10.95
2023-02-22T06:32:14.981Z,10.82
2023-02-22T06:35:23.181Z,12.80
2023-02-22T06:38:27.853Z,15.93
2023-02-22T06:41:30.929Z,28.73
2023-02-22T06:44:33.499Z,18.70
2023-02-22T06:47:40.440Z,14.82
2023-02-22T06:50:43.578Z,17.10
2023-02-22T06:53:49.554Z,16.70
2023-02-22T06:56:52.339Z,22.00
2023-02-22T06:59:54.868Z,33.22
2023-02-22T07:02:58.320Z,34.17
2023-02-22T07:06:00.873Z,26.45
2023-02-22T07:09:04.183Z,27.97
2023-02-22T07:12:07.902Z,23.17
2023-02-22T07:15:11.383Z,24.13
2023-02-22T07:18:17.511Z,23.05
2023-02-22T07:21:20.388Z,20.88
2023-02-22T07:24:23.012Z,19.37
2023-02-22T07:27:25.615Z,21.97
2023-02-22T07:30:32.068Z,15.80
2023-02-22T07:33:38.115Z,16.45
2023-02-22T07:36:41.664Z,14.82
2023-02-22T07:39:45.113Z,20.80
2023-02-22T07:43:15.295Z,22.40
2023-02-22T07:46:18.311Z,19.67
2023-02-22T07:49:22.466Z,23.17
2023-02-22T07:52:25.798Z,18.45
2023-02-22T07:55:30.066Z,17.47
2023-02-22T07:58:33.334Z,18.27
2023-02-22T08:01:37.439Z,20.75
2023-02-22T08:04:40.367Z,18.38
2023-02-22T08:07:43.404Z,14.63
2023-02-22T08:10:46.315Z,15.37
2023-02-22T08:13:49.407Z,15.33
2023-02-22T08:16:54.995Z,13.15
2023-02-22T08:19:58.193Z,10.63
2023-02-22T08:23:01.579Z,11.38
2023-02-22T08:26:15.984Z,10.73
2023-02-22T08:29:19.715Z,12.37
2023-02-22T08:32:23.315Z,13.43
2023-02-22T08:35:27.858Z,9.80
2023-02-22T08:38:32.966Z,9.15
2023-02-22T08:41:36.232Z,9.70
2023-02-22T08:44:40.335Z,7.23
2023-02-22T08:47:43.839Z,9.05
2023-02-22T08:50:46.992Z,8.68
2023-02-22T08:53:50.802Z,10.77
2023-02-22T08:56:54.786Z,7.97
2023-02-22T08:59:58.145Z,7.87
2023-02-22T09:03:06.448Z,8.40
2023-02-22T09:06:09.606Z,12.18
2023-02-22T09:15:11.635Z,9.10
2023-02-22T09:18:14.807Z,9.77
2023-02-22T09:21:18.115Z,8.27
2023-02-22T09:24:22.955Z,6.72
2023-02-22T09:27:28.621Z,8.82
2023-02-22T09:30:37.451Z,8.97
2023-02-22T09:33:41.339Z,7.67
2023-02-22T09:36:46.659Z,6.68
2023-02-22T09:39:49.591Z,9.07
2023-02-22T09:43:14.328Z,9.50
2023-02-22T09:46:19.497Z,7.60
2023-02-22T09:49:31.346Z,7.27
2023-02-22T09:52:41.877Z,6.47
2023-02-22T09:55:50.215Z,9.40
2023-02-22T09:58:57.628Z,6.40
2023-02-22T10:02:20.146Z,8.70
2023-02-22T10:05:29.159Z,8.37
2023-02-22T10:08:34.619Z,6.25
2023-02-22T10:11:58.692Z,5.53
2023-02-22T10:15:02.071Z,9.65
2023-02-22T10:18:21.371Z,8.37
2023-02-22T10:21:42.793Z,7.23
2023-02-22T10:25:09.575Z,8.00
2023-02-22T10:28:19.960Z,7.32
2023-02-22T10:31:30.333Z,8.20
2023-02-22T10:34:44.016Z,6.53
2023-02-22T10:37:48.291Z,7.73
2023-02-22T10:40:57.547Z,10.32
2023-02-22T10:44:02.220Z,8.95
2023-02-22T10:47:11.509Z,10.25
2023-02-22T10:50:15.733Z,8.50
2023-02-22T10:53:18.370Z,7.50
2023-02-22T10:56:26.577Z,10.38
2023-02-22T10:59:34.971Z,7.85
2023-02-22T11:02:37.817Z,10.88
2023-02-22T11:05:41.298Z,8.13
2023-02-22T11:08:44.150Z,11.20
2023-02-22T11:11:49.343Z,9.35
2023-02-22T11:14:52.117Z,9.70
2023-02-22T11:17:57.767Z,12.35
2023-02-22T11:21:03.584Z,10.07
2023-02-22T11:24:13.182Z,10.77
2023-02-22T11:27:38.751Z,11.52
2023-02-22T11:30:44.611Z,11.80
2023-02-22T11:37:29.400Z,9.27
2023-02-22T11:40:33.925Z,8.83
2023-02-22T11:43:37.811Z,11.18
2023-02-22T11:46:43.493Z,13.63
2023-02-22T11:49:48.163Z,10.25
2023-02-22T11:53:01.769Z,11.27
2023-02-22T11:56:22.773Z,9.87
2023-02-22T11:59:37.470Z,8.82
2023-02-22T12:03:06.493Z,10.00
2023-02-22T12:06:46.639Z,9.93
2023-02-22T12:10:01.880Z,9.00
2023-02-22T12:13:34.383Z,11.10
2023-02-22T12:17:13.946Z,12.48
2023-02-22T12:20:25.314Z,9.05
2023-02-22T12:23:51.677Z,11.32
2023-02-22T12:27:04.047Z,8.93
2023-02-22T12:30:25.077Z,12.57
2023-02-22T12:33:31.811Z,10.45
2023-02-22T12:36:41.305Z,9.13
2023-02-22T12:39:53.717Z,10.43
2023-02-22T12:42:56.587Z,10.47
2023-02-22T12:46:17.973Z,12.63
2023-02-22T12:49:34.744Z,11.55
2023-02-22T12:52:48.358Z,16.20
2023-02-22T12:55:56.706Z,12.23
2023-02-22T12:59:03.258Z,17.33
2023-02-22T13:02:27.220Z,12.87
2023-02-22T13:05:39.553Z,14.80
2023-02-22T13:08:48.358Z,14.23
2023-02-22T13:11:59.808Z,15.70
2023-02-22T13:15:20.728Z,14.30
2023-02-22T13:18:28.168Z,11.87
2023-02-22T13:21:33.797Z,14.95
2023-02-22T13:24:51.724Z,12.50
2023-02-22T13:28:00.509Z,12.73
2023-02-22T13:31:13.974Z,12.63
2023-02-22T13:34:37.636Z,12.87
2023-02-22T13:38:02.211Z,12.43
2023-02-22T13:41:06.368Z,16.55
2023-02-22T13:44:18.229Z,15.65
2023-02-22T13:47:36.391Z,11.60
2023-02-22T13:50:59.253Z,9.77
2023-02-22T13:54:09.076Z,11.02
2023-02-22T13:57:22.207Z,12.35
2023-02-22T14:00:47.199Z,14.95
2023-02-22T14:03:50.061Z,11.63
2023-02-22T14:06:54.194Z,12.80
2023-02-22T14:09:59.182Z,13.10
2023-02-22T14:13:07.156Z,13.45
2023-02-22T14:16:12.712Z,12.73
2023-02-22T14:19:23.830Z,17.10
2023-02-22T14:22:29.903Z,15.07
2023-02-22T14:25:40.466Z,15.27
2023-02-22T14:29:10.967Z,14.60
2023-02-22T14:32:15.258Z,15.85
2023-02-22T14:35:27.575Z,15.80
2023-02-22T14:38:34.618Z,12.57
2023-02-22T14:41:39.021Z,14.35
2023-02-22T14:44:53.415Z,14.55
2023-02-22T14:48:16.908Z,15.45
2023-02-22T14:51:26.835Z,15.67
2023-02-22T14:54:42.236Z,16.90
2023-02-22T14:58:01.381Z,12.25
2023-02-22T15:01:20.234Z,12.80
2023-02-22T15:04:28.032Z,15.15
2023-02-22T15:07:32.526Z,11.87
2023-02-22T15:10:46.555Z,23.67
2023-02-22T15:13:51.863Z,24.77
2023-02-22T15:16:58.736Z,30.48
2023-02-22T15:20:10.189Z,29.35
2023-02-22T15:23:16.845Z,29.27
2023-02-22T15:26:37.358Z,20.00
2023-02-22T15:29:44.525Z,23.35
2023-02-22T15:33:02.956Z,24.75
2023-02-22T15:36:15.178Z,20.25
2023-02-22T15:39:29.644Z,24.23
2023-02-22T15:42:32.134Z,20.67
2023-02-22T15:45:35.500Z,22.33
2023-02-22T15:48:41.229Z,15.70
2023-02-22T15:51:49.152Z,15.25
2023-02-22T15:54:52.559Z,18.57
2023-02-22T15:57:58.043Z,14.13
2023-02-22T16:01:03.717Z,9.35
2023-02-22T16:04:07.002Z,15.73
2023-02-22T16:07:21.486Z,11.00
2023-02-22T16:10:29.696Z,15.27
2023-02-22T16:13:36.398Z,18.20
2023-02-22T16:16:43.349Z,18.42
2023-02-22T16:19:46.212Z,18.17
2023-02-22T16:22:50.297Z,19.55
2023-02-22T16:26:26.808Z,21.20
2023-02-22T16:29:29.737Z,20.03
2023-02-22T16:32:32.640Z,19.65
2023-02-22T16:35:35.748Z,21.10
2023-02-22T16:38:39.210Z,23.23
2023-02-22T16:41:41.768Z,23.70
2023-02-22T16:44:44.218Z,26.00
2023-02-22T16:47:47.709Z,27.95
2023-02-22T16:50:52.284Z,17.65
2023-02-22T16:53:56.321Z,11.80
2023-02-22T16:57:03.906Z,13.90
2023-02-22T17:00:13.097Z,9.70
2023-02-22T17:03:21.369Z,15.88
2023-02-22T17:06:23.864Z,16.33
2023-02-22T17:09:26.690Z,24.00
2023-02-22T17:12:32.154Z,22.53
2023-02-22T17:15:36.111Z,29.20
2023-02-22T17:18:39.430Z,27.65
2023-02-22T17:21:42.182Z,20.45
2023-02-22T17:24:44.958Z,23.42
2023-02-22T17:27:47.912Z,23.27
2023-02-22T17:30:52.589Z,31.57
2023-02-22T17:34:02.197Z,22.42
2023-02-22T17:37:05.152Z,20.55
2023-02-22T17:40:08.547Z,14.73
2023-02-22T17:43:11.662Z,18.63
2023-02-22T17:46:14.375Z,17.10
2023-02-22T17:49:17.012Z,10.50
2023-02-22T17:52:20.045Z,15.60
2023-02-22T17:55:23.345Z,41.38
2023-02-22T17:58:30.978Z,45.43
2023-02-22T18:01:33.943Z,22.93
2023-02-22T18:04:36.915Z,19.65
2023-02-22T18:07:39.765Z,21.00
2023-02-22T18:10:43.869Z,15.35
2023-02-22T18:13:47.711Z,12.53
2023-02-22T18:16:50.394Z,11.60
2023-02-22T18:19:53.268Z,16.08
2023-02-22T18:22:56.014Z,15.05
2023-02-22T18:26:10.685Z,16.83
2023-02-22T18:29:14.164Z,15.53
2023-02-22T18:32:17.156Z,16.93
2023-02-22T18:35:20.033Z,23.70
2023-02-22T18:38:23.410Z,22.45
2023-02-22T18:41:26.042Z,19.42
2023-02-22T18:44:29.985Z,30.63
2023-02-22T18:47:39.470Z,32.10
2023-02-22T18:50:42.516Z,32.13
2023-02-22T18:53:47.779Z,18.13
2023-02-22T18:56:50.865Z,17.65
2023-02-22T18:59:55.087Z,20.47
2023-02-22T19:03:00.698Z,20.30
2023-02-22T19:06:08.785Z,21.60
2023-02-22T19:09:11.857Z,22.20
2023-02-22T19:12:17.529Z,23.10
2023-02-22T19:15:20.279Z,21.27
2023-02-22T19:18:23.739Z,23.03
2023-02-22T19:21:30.201Z,20.98
2023-02-22T19:24:39.959Z,19.63
2023-02-22T19:27:44.490Z,22.45
2023-02-22T19:30:48.637Z,25.27
2023-02-22T19:33:51.858Z,22.90
2023-02-22T19:36:56.030Z,23.60
2023-02-22T19:39:58.682Z,18.05
2023-02-22T19:43:01.543Z,20.35
2023-02-22T19:46:08.292Z,20.63
2023-02-22T19:49:10.985Z,17.60
2023-02-22T19:52:14.037Z,18.10
2023-02-22T19:55:17.053Z,18.23
2023-02-22T19:58:20.197Z,19.20
2023-02-22T20:01:29.877Z,17.63
2023-02-22T20:04:32.713Z,24.17
2023-02-22T20:07:36.704Z,25.38
2023-02-22T20:10:40.053Z,32.40
2023-02-22T20:13:43.721Z,33.22
2023-02-22T20:16:46.450Z,31.43
2023-02-22T20:19:50.439Z,24.27
2023-02-22T20:22:54.088Z,21.77
2023-02-22T20:25:57.477Z,19.98
2023-02-22T20:29:00.567Z,18.63
2023-02-22T20:32:03.663Z,23.10
2023-02-22T20:35:07.219Z,22.40
2023-02-22T20:38:11.630Z,18.02
2023-02-22T20:41:20.138Z,20.67
2023-02-22T20:44:23.156Z,18.27
2023-02-22T20:47:25.764Z,16.17
2023-02-22T20:50:28.588Z,19.60
2023-02-22T20:53:32.019Z,20.27
2023-02-22T20:56:35.232Z,20.00
2023-02-22T20:59:38.104Z,15.52
2023-02-22T21:02:40.945Z,16.73
2023-02-22T21:05:45.758Z,12.23
2023-02-22T21:08:54.871Z,18.00
2023-02-22T21:11:57.658Z,13.63
2023-02-22T21:15:00.780Z,14.63
2023-02-22T21:18:04.748Z,12.10
2023-02-22T21:21:12.215Z,13.10
2023-02-22T21:24:15.477Z,9.52
2023-02-22T21:27:18.267Z,11.63
2023-02-22T21:30:21.133Z,11.95
2023-02-22T21:33:23.812Z,14.23
2023-02-22T21:36:27.632Z,14.07
2023-02-22T21:39:30.492Z,14.95
2023-02-22T21:42:33.309Z,18.40
2023-02-22T21:45:36.546Z,13.02
2023-02-22T21:48:45.050Z,19.27
2023-02-22T21:51:47.914Z,18.83
2023-02-22T21:54:50.615Z,19.17
2023-02-22T21:57:53.299Z,21.60
2023-02-22T22:00:55.854Z,20.77
2023-02-22T22:04:00.503Z,24.53
2023-02-22T22:07:04.496Z,18.97
2023-02-22T22:10:09.024Z,22.23
2023-02-22T22:13:18.473Z,18.92
2023-02-22T22:16:22.289Z,14.63
2023-02-22T22:19:26.765Z,11.13
2023-02-22T22:22:29.332Z,18.17
2023-02-22T22:25:32.308Z,12.00
2023-02-22T22:28:35.033Z,12.90
2023-02-22T22:31:38.689Z,12.43
2023-02-22T22:34:42.632Z,12.90
2023-02-22T22:37:51.244Z,15.70
2023-02-22T22:40:54.058Z,15.88
2023-02-22T22:43:56.526Z,12.95
2023-02-22T22:46:59.019Z,21.90
2023-02-22T22:50:01.701Z,19.27
2023-02-22T22:53:05.453Z,17.90
2023-02-22T22:56:17.485Z,15.02
2023-02-22T22:59:20.298Z,12.95
2023-02-22T23:02:22.872Z,13.10
2023-02-22T23:05:28.109Z,19.33
2023-02-22T23:08:43.191Z,10.70
2023-02-22T23:12:17.923Z,11.25
2023-02-22T23:15:20.632Z,12.15
2023-02-22T23:18:23.293Z,16.98
2023-02-22T23:21:26.109Z,12.63
2023-02-22T23:24:28.802Z,15.43
2023-02-22T23:27:31.479Z,14.93
2023-02-22T23:30:33.958Z,14.48
2023-02-22T23:33:38.366Z,13.27
2023-02-22T23:36:47.266Z,11.17
2023-02-22T23:39:51.061Z,10.10
2023-02-22T23:42:54.820Z,14.27
2023-02-22T23:46:01.964Z,19.48
2023-02-22T23:49:05.603Z,15.55
2023-02-22T23:52:09.670Z,15.23
2023-02-22T23:55:12.949Z,15.80
2023-02-22T23:58:15.534Z,10.90
